Time;durP1;ratioP1;P1;durP2;ratioP2;P2;SDS_P1;SDS_P2;PMS_P1;PMS_P2;Temp;Humidity;BMP_temperature;BMP_pressure;BME280_temperature;BME280_humidity;BME280_pressure;Samples;Min_cycle;Max_cycle;Signal;HPM_P1;HPM_P2
2022/04/10 00:00:22;;;;;;;5.90;2.10;;;;;;;5.82;100.00;101409.13;5039711;28;20326;-73
2022/04/10 00:02:48;;;;;;;9.30;1.93;;;;;;;5.14;100.00;101442.34;5042249;28;20650;-73
2022/04/10 00:05:13;;;;;;;4.00;1.60;;;;;;;5.24;100.00;101422.88;5037369;28;20184;-73
2022/04/10 00:07:39;;;;;;;4.80;1.93;;;;;;;6.11;100.00;101484.28;5037623;28;20579;-72
2022/04/10 00:10:05;;;;;;;6.40;2.10;;;;;;;5.70;100.00;101410.31;5039238;28;20224;-73
2022/04/10 00:12:34;;;;;;;5.80;1.73;;;;;;;5.98;100.00;101424.41;5039080;28;20549;-73
2022/04/10 00:15:01;;;;;;;4.10;1.50;;;;;;;5.98;100.00;101413.75;5040854;28;20485;-72
2022/04/10 00:17:27;;;;;;;6.30;2.30;;;;;;;6.06;100.00;101496.38;5037777;28;20453;-74
2022/04/10 00:19:52;;;;;;;4.60;1.80;;;;;;;5.39;100.00;101450.63;5040314;28;20836;-73
2022/04/10 00:22:18;;;;;;;4.00;1.53;;;;;;;5.88;100.00;101499.03;5041269;28;20176;-73
2022/04/10 00:24:43;;;;;;;2.63;1.10;;;;;;;5.61;100.00;101450.19;5037648;28;20202;-73
2022/04/10 00:27:13;;;;;;;4.57;1.23;;;;;;;5.88;100.00;101510.50;5042311;28;20658;-73
2022/04/10 00:29:39;;;;;;;4.27;1.10;;;;;;;5.82;100.00;101481.00;5038968;28;20673;-73
2022/04/10 00:32:05;;;;;;;2.40;1.20;;;;;;;5.89;100.00;101487.38;5041763;28;20430;-73
2022/04/10 00:34:30;;;;;;;4.60;1.10;;;;;;;5.87;100.00;101438.75;5038054;28;20647;-72
2022/04/10 00:36:56;;;;;;;4.10;1.10;;;;;;;6.18;100.00;101507.63;5041171;28;20294;-73
2022/04/10 00:39:21;;;;;;;4.87;1.23;;;;;;;5.57;100.00;101442.66;5038192;28;20554;-72
2022/04/10 00:41:49;;;;;;;7.23;1.63;;;;;;;5.32;100.00;101406.97;5036066;28;20237;-72
2022/04/10 00:44:15;;;;;;;4.13;1.27;;;;;;;6.02;100.00;101479.88;5040302;28;20329;-73
2022/04/10 00:46:41;;;;;;;5.97;1.33;;;;;;;6.33;100.00;101482.09;5040959;28;20445;-73
2022/04/10 00:49:07;;;;;;;5.53;1.47;;;;;;;6.40;100.00;101485.00;5036802;28;20446;-73
2022/04/10 00:51:40;;;;;;;3.83;1.53;;;;;;;5.97;100.00;101460.03;5039836;28;20497;-74
2022/04/10 00:54:08;;;;;;;4.70;1.40;;;;;;;5.77;100.00;101454.81;5034293;28;20922;-72
2022/04/10 00:56:34;;;;;;;5.50;1.43;;;;;;;5.79;100.00;101491.94;5039804;28;20503;-73
2022/04/10 00:59:01;;;;;;;6.17;1.73;;;;;;;5.97;100.00;101505.28;5036827;28;20478;-73
2022/04/10 01:01:27;;;;;;;10.00;2.07;;;;;;;5.71;100.00;101459.94;5037721;28;21112;-73
2022/04/10 01:03:53;;;;;;;5.03;1.73;;;;;;;5.62;100.00;101467.81;5032933;28;20861;-73
2022/04/10 01:06:18;;;;;;;9.20;1.93;;;;;;;5.38;100.00;101480.84;5040841;28;20460;-72
2022/04/10 01:08:44;;;;;;;4.53;2.20;;;;;;;6.01;100.00;101499.50;5039264;28;20593;-73
2022/04/10 01:11:11;;;;;;;9.07;2.40;;;;;;;5.83;100.00;101496.81;5041560;28;20191;-72
2022/04/10 01:13:37;;;;;;;6.30;2.33;;;;;;;5.49;100.00;101437.25;5040005;28;20662;-73
2022/04/10 01:16:02;;;;;;;5.23;2.00;;;;;;;5.55;100.00;101461.41;5042371;28;20469;-73
2022/04/10 01:18:29;;;;;;;8.43;2.20;;;;;;;5.54;100.00;101417.19;5039998;28;20230;-73
2022/04/10 01:20:54;;;;;;;15.67;2.30;;;;;;;5.55;100.00;101428.66;5039325;28;20207;-73
2022/04/10 01:23:20;;;;;;;10.47;2.67;;;;;;;6.39;100.00;101486.81;5042561;28;21087;-73
2022/04/10 01:25:46;;;;;;;11.83;2.53;;;;;;;6.37;100.00;101509.31;5043967;28;20184;-73
2022/04/10 01:28:13;;;;;;;9.20;2.30;;;;;;;6.56;100.00;101515.25;5041863;28;20919;-74
2022/04/10 01:30:39;;;;;;;11.37;2.13;;;;;;;5.87;100.00;101422.78;5041809;28;20187;-74
2022/04/10 01:33:05;;;;;;;9.27;2.40;;;;;;;6.07;100.00;101456.25;5038848;28;20597;-73
2022/04/10 01:35:32;;;;;;;6.00;1.90;;;;;;;6.16;100.00;101499.78;5044250;28;20467;-74
2022/04/10 01:38:00;;;;;;;10.37;2.37;;;;;;;6.39;100.00;101501.97;5040439;28;20446;-74
2022/04/10 01:40:26;;;;;;;9.17;2.60;;;;;;;6.49;100.00;101506.22;5042722;28;20489;-73
2022/04/10 01:42:52;;;;;;;7.90;2.50;;;;;;;5.92;100.00;101420.50;5040769;28;20903;-74
2022/04/10 01:45:17;;;;;;;12.70;2.30;;;;;;;5.56;100.00;101417.03;5043554;28;20238;-73
2022/04/10 01:47:43;;;;;;;9.17;2.47;;;;;;;6.32;100.00;101505.25;5042605;28;20764;-73
2022/04/10 01:50:10;;;;;;;7.87;2.00;;;;;;;5.78;100.00;101407.72;5042932;28;20723;-73
2022/04/10 01:52:36;;;;;;;9.17;3.27;;;;;;;5.83;100.00;101443.56;5039360;28;20183;-73
2022/04/10 01:55:01;;;;;;;12.63;2.60;;;;;;;5.87;100.00;101470.72;5046212;28;20481;-73
2022/04/10 01:57:27;;;;;;;10.03;2.00;;;;;;;5.08;100.00;101363.16;5043420;28;20184;-73
2022/04/10 01:59:52;;;;;;;9.13;2.30;;;;;;;6.06;100.00;101505.19;5043275;28;20183;-74
2022/04/10 02:02:18;;;;;;;11.00;2.43;;;;;;;5.62;100.00;101451.84;5032272;28;21933;-73
2022/04/10 02:04:43;;;;;;;9.27;2.20;;;;;;;6.04;100.00;101522.31;5016607;28;20628;-72
2022/04/10 02:07:08;;;;;;;13.10;2.60;;;;;;;6.21;100.00;101508.16;5011551;28;20207;-74
2022/04/10 02:09:34;;;;;;;4.23;1.60;;;;;;;5.95;100.00;101430.03;5007403;28;20222;-73
2022/04/10 02:11:59;;;;;;;10.27;2.40;;;;;;;5.09;100.00;101317.00;5010824;28;20203;-73
2022/04/10 02:14:24;;;;;;;3.93;1.77;;;;;;;5.71;100.00;101449.28;4997247;28;20891;-73
2022/04/10 02:16:50;;;;;;;4.90;1.30;;;;;;;6.01;100.00;101461.38;5002010;28;20213;-72
2022/04/10 02:19:15;;;;;;;6.70;1.80;;;;;;;5.81;100.00;101496.09;5013615;28;20191;-72
2022/04/10 02:21:41;;;;;;;9.57;1.97;;;;;;;6.01;100.00;101530.63;4993697;28;20210;-73
2022/04/10 02:24:06;;;;;;;4.80;1.80;;;;;;;6.04;100.00;101477.88;4993765;28;22192;-72
2022/04/10 02:26:32;;;;;;;5.87;1.63;;;;;;;6.41;100.00;101516.81;5002719;28;20657;-72
2022/04/10 02:28:57;;;;;;;9.80;2.47;;;;;;;5.79;100.00;101425.41;5015635;28;20198;-74
2022/04/10 02:31:23;;;;;;;8.73;1.50;;;;;;;5.92;100.00;101462.28;5004993;28;23169;-74
2022/04/10 02:33:48;;;;;;;5.33;1.33;;;;;;;6.11;100.00;101512.75;4996389;28;20372;-74
2022/04/10 02:36:16;;;;;;;8.73;1.37;;;;;;;6.21;100.00;101507.31;5002837;28;20215;-73
2022/04/10 02:38:42;;;;;;;4.77;1.57;;;;;;;5.77;100.00;101454.00;5003027;28;20264;-73
2022/04/10 02:41:07;;;;;;;3.10;1.13;;;;;;;5.55;100.00;101504.00;4996670;28;20446;-73
2022/04/10 02:43:33;;;;;;;4.87;1.40;;;;;;;5.98;100.00;101568.19;4993523;28;21252;-74
2022/04/10 02:45:58;;;;;;;4.03;1.10;;;;;;;5.55;100.00;101527.94;5010129;28;20188;-73
2022/04/10 02:48:24;;;;;;;2.70;0.90;;;;;;;5.73;100.00;101585.69;5015906;28;20309;-75
2022/04/10 02:50:49;;;;;;;3.97;0.97;;;;;;;5.54;100.00;101539.59;5013863;28;20640;-75
2022/04/10 02:53:14;;;;;;;1.37;0.93;;;;;;;5.70;100.00;101552.25;4991322;28;20294;-72
2022/04/10 02:55:40;;;;;;;5.00;1.10;;;;;;;5.27;100.00;101494.38;5022935;28;20199;-73
2022/04/10 02:58:05;;;;;;;4.93;1.43;;;;;;;5.74;100.00;101547.47;4997206;28;20215;-72
2022/04/10 03:00:31;;;;;;;3.87;0.97;;;;;;;6.03;100.00;101557.94;4996421;28;20669;-73
2022/04/10 03:02:56;;;;;;;4.00;1.00;;;;;;;5.78;100.00;101541.66;5011329;28;20942;-73
2022/04/10 03:05:21;;;;;;;3.73;0.93;;;;;;;5.57;100.00;101471.91;5007749;28;20551;-73
2022/04/10 03:07:47;;;;;;;3.60;0.87;;;;;;;5.26;100.00;101527.25;4993871;28;22685;-73
2022/04/10 03:10:12;;;;;;;2.70;1.00;;;;;;;5.75;100.00;101528.66;5012420;28;20748;-73
2022/04/10 03:12:38;;;;;;;2.33;1.20;;;;;;;5.19;100.00;101460.53;5003111;28;20218;-72
2022/04/10 03:15:05;;;;;;;2.50;0.80;;;;;;;5.82;100.00;101548.38;5032038;28;20218;-73
2022/04/10 03:17:30;;;;;;;3.50;1.00;;;;;;;5.86;100.00;101509.81;5022429;28;20206;-73
2022/04/10 03:19:56;;;;;;;3.93;1.07;;;;;;;5.12;100.00;101472.72;4998064;28;20449;-73
2022/04/10 03:22:21;;;;;;;4.33;1.20;;;;;;;5.91;100.00;101557.28;5012885;28;20194;-73
2022/04/10 03:24:46;;;;;;;5.43;1.27;;;;;;;5.35;100.00;101507.75;5025189;28;20276;-72
2022/04/10 03:27:12;;;;;;;4.80;1.30;;;;;;;5.48;100.00;101510.91;5015140;28;20191;-72
2022/04/10 03:29:37;;;;;;;5.37;1.60;;;;;;;5.56;100.00;101574.88;5017291;28;20905;-73
2022/04/10 03:32:03;;;;;;;5.07;1.60;;;;;;;4.94;100.00;101497.44;5022569;28;20666;-72
2022/04/10 03:34:28;;;;;;;2.83;1.20;;;;;;;5.17;100.00;101499.72;5036794;28;20325;-72
2022/04/10 03:36:53;;;;;;;9.30;1.87;;;;;;;5.79;100.00;101569.97;5037474;28;20190;-72
2022/04/10 03:39:19;;;;;;;4.53;1.57;;;;;;;5.61;100.00;101532.69;5021734;28;20188;-72
2022/04/10 03:41:44;;;;;;;10.03;1.60;;;;;;;6.14;100.00;101586.19;5020360;28;20192;-73
2022/04/10 03:44:09;;;;;;;6.53;1.90;;;;;;;5.29;100.00;101546.41;5037733;28;20314;-73
2022/04/10 03:46:35;;;;;;;5.63;1.80;;;;;;;5.57;100.00;101592.50;5040857;28;20242;-72
2022/04/10 03:49:00;;;;;;;4.37;1.37;;;;;;;4.96;100.00;101513.25;5033513;28;20546;-72
2022/04/10 03:51:26;;;;;;;5.10;2.10;;;;;;;5.10;100.00;101562.47;5032431;28;20259;-73
2022/04/10 03:53:51;;;;;;;4.87;1.80;;;;;;;5.40;100.00;101598.59;5026565;28;20758;-73
2022/04/10 03:56:17;;;;;;;3.93;1.20;;;;;;;5.71;100.00;101601.00;5028221;28;20216;-73
2022/04/10 03:58:42;;;;;;;7.80;2.00;;;;;;;5.52;100.00;101610.72;5035788;28;20298;-73
2022/04/10 04:01:07;;;;;;;5.77;1.30;;;;;;;4.98;100.00;101544.03;5036028;28;20195;-75
2022/04/10 04:03:35;;;;;;;5.13;1.20;;;;;;;5.60;100.00;101629.47;5038450;28;20671;-72
2022/04/10 04:06:00;;;;;;;3.30;1.10;;;;;;;5.38;100.00;101625.38;5037437;28;21138;-73
2022/04/10 04:08:25;;;;;;;2.03;0.80;;;;;;;5.58;100.00;101628.81;5040987;28;20548;-73
2022/04/10 04:10:51;;;;;;;2.00;0.70;;;;;;;5.29;100.00;101623.56;5035759;28;20717;-74
2022/04/10 04:13:16;;;;;;;1.97;1.10;;;;;;;5.48;100.00;101604.03;5045651;22;20223;-75
2022/04/10 04:15:42;;;;;;;0.93;0.70;;;;;;;5.57;100.00;101621.78;5030434;28;20219;-77
2022/04/10 04:18:07;;;;;;;1.53;0.70;;;;;;;4.72;100.00;101519.91;5031802;28;20215;-76
2022/04/10 04:20:32;;;;;;;2.00;0.70;;;;;;;5.41;100.00;101595.81;5037042;28;20180;-75
2022/04/10 04:22:58;;;;;;;5.83;0.90;;;;;;;5.53;100.00;101623.06;5035318;28;20294;-77
2022/04/10 04:25:23;;;;;;;3.90;1.13;;;;;;;5.11;100.00;101610.19;5017397;28;20239;-75
2022/04/10 04:27:49;;;;;;;1.63;0.80;;;;;;;5.13;100.00;101657.91;5020113;28;20177;-74
2022/04/10 04:30:14;;;;;;;2.20;1.00;;;;;;;5.17;100.00;101592.81;5021810;28;20195;-74
2022/04/10 04:32:40;;;;;;;3.40;0.90;;;;;;;5.15;100.00;101606.28;5022810;28;20189;-75
2022/04/10 04:35:06;;;;;;;5.90;1.73;;;;;;;5.12;100.00;101616.34;5006409;28;20227;-75
2022/04/10 04:37:40;;;;;;;2.53;0.90;;;;;;;4.80;100.00;101614.84;4984048;28;20191;-74
2022/04/10 04:40:11;;;;;;;1.47;1.00;;;;;;;4.72;100.00;101545.66;5001597;28;20525;-75
2022/04/10 04:42:37;;;;;;;3.73;1.10;;;;;;;5.16;100.00;101631.88;4990509;28;21166;-72
2022/04/10 04:45:04;;;;;;;3.10;0.90;;;;;;;4.97;100.00;101637.22;5004650;28;21246;-74
2022/04/10 04:47:29;;;;;;;4.03;1.40;;;;;;;5.25;100.00;101655.94;4995535;28;20431;-75
2022/04/10 04:49:55;;;;;;;6.03;1.33;;;;;;;4.68;100.00;101555.72;4990857;28;20976;-74
2022/04/10 04:52:21;;;;;;;6.07;1.90;;;;;;;5.06;100.00;101628.38;5007422;28;20196;-77
2022/04/10 04:54:47;;;;;;;5.83;1.07;;;;;;;4.51;100.00;101561.75;4991002;28;20347;-76
2022/04/10 04:57:12;;;;;;;4.13;1.40;;;;;;;5.18;100.00;101618.44;5007188;28;20269;-77
2022/04/10 04:59:37;;;;;;;4.33;1.33;;;;;;;4.35;100.00;101570.28;4976403;28;21070;-75
2022/04/10 05:02:03;;;;;;;5.50;1.63;;;;;;;4.75;100.00;101609.16;5024987;28;20646;-77
2022/04/10 05:04:28;;;;;;;5.07;1.37;;;;;;;4.79;100.00;101591.09;5021566;28;20269;-75
2022/04/10 05:06:54;;;;;;;5.87;1.10;;;;;;;5.42;100.00;101663.16;5019988;28;20176;-76
2022/04/10 05:09:19;;;;;;;2.07;0.80;;;;;;;5.24;100.00;101679.03;5024312;28;20216;-77
2022/04/10 05:11:44;;;;;;;1.97;1.00;;;;;;;5.19;100.00;101687.44;5021784;28;20177;-73
2022/04/10 05:14:10;;;;;;;6.23;1.10;;;;;;;5.20;100.00;101648.38;5024958;28;20208;-76
2022/04/10 05:16:35;;;;;;;3.20;1.10;;;;;;;5.24;100.00;101657.75;5025401;28;20887;-75
2022/04/10 05:19:01;;;;;;;3.63;1.20;;;;;;;4.30;100.00;101557.44;5021412;28;20189;-73
2022/04/10 05:21:26;;;;;;;5.73;1.23;;;;;;;5.28;100.00;101660.97;5023527;28;20188;-74
2022/04/10 05:23:51;;;;;;;3.17;1.20;;;;;;;5.72;100.00;101685.19;5023567;28;20204;-78
2022/04/10 05:26:17;;;;;;;4.30;1.20;;;;;;;5.28;100.00;101637.03;5021395;28;20662;-75
2022/04/10 05:28:42;;;;;;;9.83;2.07;;;;;;;5.50;100.00;101638.50;5021413;28;20192;-73
2022/04/10 05:31:08;;;;;;;3.60;1.40;;;;;;;5.18;100.00;101594.50;5017084;28;20263;-74
2022/04/10 05:33:34;;;;;;;3.87;1.30;;;;;;;5.52;100.00;101669.28;5024191;28;20212;-77
2022/04/10 05:35:59;;;;;;;6.93;1.37;;;;;;;4.98;100.00;101630.94;5018921;28;20204;-73
2022/04/10 05:38:26;;;;;;;7.27;1.43;;;;;;;5.42;100.00;101705.72;5027739;28;20496;-75
2022/04/10 05:40:54;;;;;;;2.20;1.10;;;;;;;5.26;100.00;101655.78;5024211;28;20934;-75
2022/04/10 05:43:20;;;;;;;3.97;1.20;;;;;;;5.29;100.00;101671.44;5019666;28;20462;-75
2022/04/10 05:45:46;;;;;;;5.93;1.50;;;;;;;4.95;100.00;101628.56;5021785;28;20463;-73
2022/04/10 05:48:12;;;;;;;4.60;1.43;;;;;;;4.97;100.00;101658.50;5024366;28;20439;-75
2022/04/10 05:50:38;;;;;;;6.53;1.70;;;;;;;4.76;100.00;101635.56;5022589;28;20509;-74
2022/04/10 05:53:07;;;;;;;6.57;1.30;;;;;;;5.50;100.00;101697.88;5015083;28;20187;-76
2022/04/10 05:55:33;;;;;;;3.33;1.70;;;;;;;5.21;100.00;101632.28;5017223;28;21952;-75
2022/04/10 05:57:58;;;;;;;2.50;1.03;;;;;;;5.53;100.00;101702.06;5021246;28;21004;-76
2022/04/10 06:00:30;;;;;;;4.93;2.20;;;;;;;5.62;100.00;101683.41;5024865;28;20599;-75
2022/04/10 06:03:01;;;;;;;5.67;1.43;;;;;;;5.63;100.00;101710.84;5024202;28;20177;-74
2022/04/10 06:05:26;;;;;;;5.63;1.70;;;;;;;5.62;100.00;101677.25;5020116;28;20431;-76
2022/04/10 06:07:51;;;;;;;10.17;1.67;;;;;;;5.55;100.00;101662.81;5027317;28;20925;-81
2022/04/10 06:10:19;;;;;;;4.50;1.70;;;;;;;5.90;100.00;101707.38;5024767;28;20234;-73
2022/04/10 06:12:45;;;;;;;6.60;2.27;;;;;;;6.03;100.00;101712.41;5018706;28;20188;-77
2022/04/10 06:15:10;;;;;;;5.70;1.50;;;;;;;5.47;100.00;101615.69;5026476;28;20478;-73
2022/04/10 06:17:39;;;;;;;6.43;2.23;;;;;;;5.66;100.00;101715.88;5021943;28;20441;-75
2022/04/10 06:20:05;;;;;;;6.20;1.20;;;;;;;5.78;100.00;101728.03;5024526;28;20190;-74
2022/04/10 06:22:31;;;;;;;7.67;1.83;;;;;;;5.61;100.00;101748.28;5019568;28;21159;-73
2022/04/10 06:24:56;;;;;;;7.10;1.47;;;;;;;6.18;100.00;101760.69;5019083;28;20455;-73
2022/04/10 06:27:22;;;;;;;6.43;1.30;;;;;;;5.45;100.00;101718.75;5022304;28;20628;-77
2022/04/10 06:29:47;;;;;;;8.27;1.57;;;;;;;6.16;100.00;101754.69;5022401;28;20188;-75
2022/04/10 06:32:13;;;;;;;9.10;2.10;;;;;;;5.98;100.00;101759.94;5020491;28;20280;-76
2022/04/10 06:34:39;;;;;;;4.07;1.20;;;;;;;5.76;100.00;101719.38;5022339;28;20212;-74
2022/04/10 06:37:04;;;;;;;4.83;1.60;;;;;;;5.80;100.00;101727.88;5017919;28;20446;-75
2022/04/10 06:39:30;;;;;;;7.50;1.90;;;;;;;5.73;100.00;101735.63;5019001;28;20188;-74
2022/04/10 06:41:55;;;;;;;5.50;1.20;;;;;;;5.50;100.00;101684.56;5015056;28;20592;-74
2022/04/10 06:44:21;;;;;;;3.00;1.23;;;;;;;4.94;100.00;101672.06;5010844;28;20204;-75
2022/04/10 06:46:46;;;;;;;6.73;1.30;;;;;;;5.28;100.00;101668.94;5018982;28;20271;-79
2022/04/10 06:49:12;;;;;;;6.27;2.10;;;;;;;4.78;100.00;101589.44;5020452;28;20311;-75
2022/04/10 06:51:38;;;;;;;6.73;1.60;;;;;;;6.10;100.00;101751.63;5021208;28;20189;-75
2022/04/10 06:54:04;;;;;;;6.97;1.83;;;;;;;5.90;100.00;101734.00;5006628;28;20287;-75
2022/04/10 06:56:29;;;;;;;4.43;1.30;;;;;;;6.27;100.00;101752.66;5014764;28;20477;-75
2022/04/10 06:58:55;;;;;;;3.80;1.20;;;;;;;6.38;100.00;101774.78;5013152;28;20439;-73
2022/04/10 07:01:20;;;;;;;6.80;1.30;;;;;;;6.06;100.00;101746.75;5016623;28;21412;-72
2022/04/10 07:03:45;;;;;;;6.73;1.50;;;;;;;5.84;100.00;101731.94;5018562;28;20553;-76
2022/04/10 07:06:11;;;;;;;6.17;1.57;;;;;;;6.13;100.00;101742.47;5013761;28;20200;-77
2022/04/10 07:08:37;;;;;;;9.50;2.10;;;;;;;6.24;100.00;101792.09;5020405;28;20738;-73
2022/04/10 07:11:03;;;;;;;4.47;1.30;;;;;;;5.83;100.00;101716.94;5020127;28;20631;-74
2022/04/10 07:13:28;;;;;;;3.77;1.47;;;;;;;6.21;100.00;101777.22;5020950;28;20504;-74
2022/04/10 07:15:53;;;;;;;5.30;1.53;;;;;;;6.18;100.00;101750.88;5018391;28;20223;-74
2022/04/10 07:18:19;;;;;;;4.70;1.47;;;;;;;6.56;100.00;101789.81;5015740;28;20183;-75
2022/04/10 07:20:45;;;;;;;4.33;1.53;;;;;;;6.21;100.00;101717.78;5018890;28;20177;-76
2022/04/10 07:25:54;;;;;;;5.90;1.57;;;;;;;6.84;100.00;101808.44;5007919;28;20804;-81
2022/04/10 07:28:20;;;;;;;3.57;1.57;;;;;;;6.70;100.00;101787.63;5010646;28;20454;-71
2022/04/10 07:30:46;;;;;;;4.87;1.80;;;;;;;6.31;100.00;101759.38;5009361;28;20192;-76
2022/04/10 07:33:12;;;;;;;4.30;1.27;;;;;;;6.69;100.00;101809.97;5007739;28;20459;-74
2022/04/10 07:35:41;;;;;;;3.33;1.20;;;;;;;6.90;100.00;101813.19;5011820;28;21147;-74
2022/04/10 07:38:07;;;;;;;5.83;1.67;;;;;;;6.89;100.00;101787.50;5009123;28;20685;-72
2022/04/10 07:40:38;;;;;;;4.73;1.57;;;;;;;6.99;100.00;101814.94;5008809;28;20454;-73
2022/04/10 07:43:04;;;;;;;5.60;1.57;;;;;;;7.01;100.00;101780.94;5023312;28;20587;-74
2022/04/10 07:48:16;;;;;;;7.43;1.40;;;;;;;6.99;100.00;101822.09;5014186;28;20465;-75
2022/04/10 07:50:42;;;;;;;5.27;1.57;;;;;;;6.74;100.00;101815.66;5020031;28;20935;-76
2022/04/10 07:53:07;;;;;;;6.87;1.77;;;;;;;6.57;100.00;101809.31;5016568;28;20463;-71
2022/04/10 07:55:33;;;;;;;5.03;1.43;;;;;;;6.85;100.00;101839.44;5018262;28;20219;-73
2022/04/10 07:57:58;;;;;;;10.50;2.47;;;;;;;6.52;100.00;101808.94;5019962;28;20207;-73
2022/04/10 08:00:24;;;;;;;6.30;1.60;;;;;;;6.80;100.00;101852.41;5010466;28;20191;-73
2022/04/10 08:02:49;;;;;;;4.53;1.13;;;;;;;6.33;100.00;101824.03;5000085;28;20199;-77
2022/04/10 08:05:17;;;;;;;43.67;5.53;;;;;;;6.79;100.00;101886.22;5005269;28;20192;-76
2022/04/10 08:07:44;;;;;;;2.80;1.00;;;;;;;6.49;100.00;101874.03;5004673;28;20203;-75
2022/04/10 08:10:10;;;;;;;2.37;1.13;;;;;;;6.10;100.00;101852.84;5024582;28;20475;-78
2022/04/10 08:12:36;;;;;;;1.73;0.73;;;;;;;6.60;100.00;101889.00;5013284;28;21724;-77
2022/04/10 08:15:02;;;;;;;2.10;0.80;;;;;;;6.50;100.00;101883.69;5015166;28;20483;-76
2022/04/10 08:17:28;;;;;;;3.20;0.90;;;;;;;6.29;100.00;101864.44;5008857;28;20538;-76
2022/04/10 08:19:53;;;;;;;3.20;1.00;;;;;;;6.41;100.00;101871.25;5022211;28;20519;-77
2022/04/10 08:22:26;;;;;;;2.73;0.90;;;;;;;6.71;100.00;101886.16;5019153;28;20204;-85
2022/04/10 08:24:51;;;;;;;6.10;1.00;;;;;;;6.28;100.00;101852.94;5018678;28;20196;-81
2022/04/10 08:27:17;;;;;;;2.47;1.07;;;;;;;5.81;100.00;101870.66;5022878;28;20439;-76
2022/04/10 08:29:43;;;;;;;7.10;1.60;;;;;;;6.29;100.00;101904.41;5022978;28;20200;-85
2022/04/10 08:32:08;;;;;;;5.37;1.67;;;;;;;6.20;100.00;101844.00;5022004;28;20188;-81
2022/04/10 08:34:34;;;;;;;2.60;1.00;;;;;;;6.52;100.00;101851.56;5013031;28;20214;-88
2022/04/10 08:37:05;;;;;;;1.67;0.90;;;;;;;6.52;100.00;101875.56;5015247;28;20196;-82
2022/04/10 08:39:33;;;;;;;1.30;0.80;;;;;;;6.70;100.00;101911.09;5020615;28;20271;-79
2022/04/10 08:42:06;;;;;;;1.17;0.80;;;;;;;6.98;100.00;101898.63;5026296;28;20446;-80
2022/04/10 08:44:32;;;;;;;4.63;1.17;;;;;;;6.94;100.00;101910.59;5027446;28;20475;-79
2022/04/10 08:46:59;;;;;;;3.80;1.20;;;;;;;7.06;100.00;101910.34;5023813;28;20459;-86
2022/04/10 08:49:26;;;;;;;4.60;1.73;;;;;;;6.77;100.00;101909.56;5021366;28;20826;-86
2022/04/10 08:51:53;;;;;;;2.83;1.17;;;;;;;6.98;100.00;101893.28;5027148;28;20869;-86
2022/04/10 08:54:23;;;;;;;4.47;1.20;;;;;;;6.83;100.00;101880.59;5029106;28;20840;-85
2022/04/10 08:56:50;;;;;;;3.47;1.10;;;;;;;6.87;100.00;101876.66;5027512;28;20485;-87
2022/04/10 08:59:17;;;;;;;2.77;1.30;;;;;;;7.01;100.00;101852.13;5027278;28;20450;-84
2022/04/10 09:01:42;;;;;;;3.70;1.37;;;;;;;7.04;100.00;101867.84;5028629;28;20447;-85
2022/04/10 09:04:08;;;;;;;3.63;1.30;;;;;;;7.09;100.00;101899.38;5022980;28;20470;-85
2022/04/10 09:06:37;;;;;;;2.67;1.00;;;;;;;7.13;100.00;101898.94;5027245;28;20212;-85
2022/04/10 09:09:16;;;;;;;10.77;1.90;;;;;;;7.07;100.00;101909.41;5029968;28;20214;-84
2022/04/10 09:11:42;;;;;;;9.47;1.57;;;;;;;7.08;100.00;101916.41;5027505;28;20418;-85
2022/04/10 09:14:08;;;;;;;5.97;1.77;;;;;;;7.20;100.00;101931.19;5022912;28;20882;-76
2022/04/10 09:16:33;;;;;;;5.87;1.30;;;;;;;7.29;100.00;101926.78;5028787;28;20562;-78
2022/04/10 09:19:01;;;;;;;5.83;1.40;;;;;;;6.78;100.00;101891.72;5025318;28;20199;-76
2022/04/10 09:21:34;;;;;;;6.77;1.90;;;;;;;7.34;100.00;101928.03;5025164;28;20189;-75
2022/04/10 09:24:05;;;;;;;7.43;1.33;;;;;;;7.31;100.00;101898.13;5024006;28;20458;-79
2022/04/10 09:26:47;;;;;;;4.13;1.20;;;;;;;7.09;100.00;101880.72;5026731;28;20439;-77
2022/04/10 09:29:14;;;;;;;9.07;1.87;;;;;;;7.16;100.00;101921.84;5024483;28;20442;-79
2022/04/10 09:31:39;;;;;;;5.10;1.53;;;;;;;7.15;100.00;101920.16;5026804;28;20447;-78
2022/04/10 09:34:07;;;;;;;4.73;1.07;;;;;;;7.39;100.00;101917.75;5023441;28;20516;-78
2022/04/10 09:36:33;;;;;;;10.10;1.70;;;;;;;7.07;100.00;101880.88;5026949;28;20223;-80
2022/04/10 09:38:59;;;;;;;5.67;2.40;;;;;;;7.47;100.00;101939.19;5029121;28;20485;-78
2022/04/10 09:41:25;;;;;;;3.27;1.23;;;;;;;7.04;100.00;101854.50;5023219;28;20486;-78
2022/04/10 09:43:51;;;;;;;3.63;1.37;;;;;;;7.47;100.00;101893.78;5011826;28;20517;-79
2022/04/10 09:46:16;;;;;;;4.90;1.60;;;;;;;7.65;100.00;101943.69;5023248;28;20216;-77
2022/04/10 09:48:42;;;;;;;9.40;1.70;;;;;;;7.69;100.00;101932.56;5019894;28;20227;-77
2022/04/10 09:51:10;;;;;;;6.80;1.73;;;;;;;7.38;100.00;101905.41;5023895;28;20184;-79
2022/04/10 09:53:36;;;;;;;6.40;1.50;;;;;;;7.43;100.00;101904.91;5018769;28;20455;-79
2022/04/10 09:56:03;;;;;;;5.40;1.63;;;;;;;7.38;100.00;101894.72;5021377;28;20474;-79
2022/04/10 09:58:29;;;;;;;5.93;1.40;;;;;;;7.74;100.00;101934.75;5021642;28;20197;-78
2022/04/10 10:00:56;;;;;;;5.43;1.33;;;;;;;7.81;100.00;101930.50;5025578;28;20523;-78
2022/04/10 10:03:28;;;;;;;7.57;1.50;;;;;;;7.72;100.00;101914.53;5019103;28;20791;-79
2022/04/10 10:05:54;;;;;;;6.50;1.43;;;;;;;7.90;100.00;101944.75;5023710;28;20507;-78
2022/04/10 10:08:22;;;;;;;6.97;1.50;;;;;;;7.79;100.00;101943.16;5026944;28;20442;-87
2022/04/10 10:10:48;;;;;;;7.10;1.57;;;;;;;7.49;100.00;101869.59;5019481;28;20454;-85
2022/04/10 10:15:42;;;;;;;9.50;1.30;;;;;;;8.05;100.00;101945.03;4986058;28;20245;-75
2022/04/10 10:18:10;;;;;;;6.50;1.47;;;;;;;7.99;100.00;101946.50;4980510;28;20506;-78
2022/04/10 10:20:40;;;;;;;5.50;1.60;;;;;;;7.95;100.00;101963.81;4984482;28;20902;-78
2022/04/10 10:23:10;;;;;;;6.77;1.93;;;;;;;7.58;100.00;101911.44;4994379;28;20463;-73
2022/04/10 10:25:45;;;;;;;6.53;1.20;;;;;;;7.67;100.00;101947.06;4977096;28;20437;-74
2022/04/10 10:28:48;;;;;;;5.77;1.63;;;;;;;7.73;100.00;101957.13;4979101;28;20812;-74
2022/04/10 10:31:26;;;;;;;8.63;1.93;;;;;;;7.70;100.00;101966.28;4985071;28;20934;-78
2022/04/10 10:33:54;;;;;;;4.43;1.27;;;;;;;7.60;100.00;101933.44;5000166;28;20452;-74
2022/04/10 10:36:22;;;;;;;9.07;1.43;;;;;;;7.70;100.00;101957.44;4988161;28;20474;-73
2022/04/10 10:38:53;;;;;;;7.33;1.77;;;;;;;7.50;100.00;101945.22;4987831;28;20443;-73
2022/04/10 10:41:18;;;;;;;9.27;1.33;;;;;;;7.53;100.00;101991.13;4992583;28;20445;-72
2022/04/10 10:43:47;;;;;;;7.30;1.80;;;;;;;7.53;100.00;101972.44;4986725;28;20960;-73
2022/04/10 10:46:32;;;;;;;3.63;1.10;;;;;;;7.40;100.00;101967.44;4994153;28;20268;-76
2022/04/10 10:49:19;;;;;;;5.60;1.03;;;;;;;7.83;100.00;101978.41;4990233;28;20952;-72
2022/04/10 10:51:48;;;;;;;9.90;2.37;;;;;;;7.60;100.00;101916.59;4981207;28;21058;-76
2022/04/10 10:54:18;;;;;;;7.50;1.47;;;;;;;7.04;100.00;101835.00;4977021;28;20461;-74
2022/04/10 10:56:46;;;;;;;5.73;1.20;;;;;;;7.96;100.00;101978.88;4992948;28;20507;-75
2022/04/10 10:59:25;;;;;;;8.33;1.50;;;;;;;7.99;100.00;101983.91;4981065;28;20494;-73
2022/04/10 11:01:55;;;;;;;8.43;1.87;;;;;;;8.13;100.00;101982.53;4997372;28;20442;-73
2022/04/10 11:04:21;;;;;;;5.47;1.57;;;;;;;8.35;100.00;101984.66;4986173;28;21184;-77
2022/04/10 11:06:48;;;;;;;5.03;1.10;;;;;;;7.77;100.00;101954.97;4996107;28;20532;-73
2022/04/10 11:09:28;;;;;;;3.73;1.20;;;;;;;7.97;100.00;101942.28;5001125;28;20970;-70
2022/04/10 11:11:55;;;;;;;2.90;1.07;;;;;;;8.31;100.00;101969.13;4994273;28;20428;-74
2022/04/10 11:14:39;;;;;;;5.23;1.50;;;;;;;8.04;100.00;101962.91;4991734;28;20464;-72
2022/04/10 11:17:20;;;;;;;6.03;1.30;;;;;;;8.35;100.00;101994.53;4993082;28;20452;-73
2022/04/10 11:19:48;;;;;;;6.60;1.50;;;;;;;7.73;100.00;101964.31;4993010;28;20463;-72
2022/04/10 11:22:25;;;;;;;9.03;1.97;;;;;;;7.68;100.00;101933.53;4995145;28;20472;-74
2022/04/10 11:24:58;;;;;;;7.63;1.50;;;;;;;8.21;100.00;101977.22;4990201;28;20455;-75
2022/04/10 11:27:56;;;;;;;12.00;2.00;;;;;;;8.15;100.00;101984.00;4992756;28;20460;-78
2022/04/10 11:30:28;;;;;;;5.17;1.87;;;;;;;8.36;100.00;101990.84;4989643;28;20440;-82